Time;durP1;ratioP1;P1;durP2;ratioP2;P2;SDS_P1;SDS_P2;PMS_P1;PMS_P2;Temp;Humidity;BMP_temperature;BMP_pressure;BME280_temperature;BME280_humidity;BME280_pressure;Samples;Min_cycle;Max_cycle;Signal;HPM_P1;HPM_P2
2023/04/21 00:00:43;;;;;;;;;28.00;23.50;;;;;9.68;54.85;100790.66;5075562;27;45503;-70
2023/04/21 00:03:11;;;;;;;;;22.25;20.50;;;;;9.55;55.03;100779.25;5061623;27;45406;-74
2023/04/21 00:05:41;;;;;;;;;24.50;19.25;;;;;9.71;55.10;100796.78;5061148;27;45489;-74
2023/04/21 00:08:07;;;;;;;;;32.75;28.25;;;;;9.59;54.98;100775.81;5064617;28;45400;-74
2023/04/21 00:10:32;;;;;;;;;37.25;31.00;;;;;9.61;55.71;100786.25;5098329;27;46432;-68
2023/04/21 00:12:58;;;;;;;;;29.00;25.00;;;;;9.41;55.62;100773.06;5078271;27;45380;-69
2023/04/21 00:15:23;;;;;;;;;40.50;32.75;;;;;9.43;55.60;100793.13;5068146;27;45436;-73
2023/04/21 00:17:49;;;;;;;;;29.50;27.50;;;;;9.26;56.79;100787.75;5069433;27;45448;-67
2023/04/21 00:20:15;;;;;;;;;37.25;27.50;;;;;9.08;56.88;100777.13;5075580;27;46420;-73
2023/04/21 00:22:40;;;;;;;;;23.75;23.00;;;;;9.04;57.17;100791.03;5067651;27;45325;-75
2023/04/21 00:25:06;;;;;;;;;34.75;30.50;;;;;8.94;57.22;100783.97;5057525;27;45378;-72
2023/04/21 00:27:32;;;;;;;;;30.50;28.25;;;;;8.95;57.72;100778.78;5068791;28;45291;-66
2023/04/21 00:29:57;;;;;;;;;30.25;23.00;;;;;9.00;57.73;100770.97;5063305;27;46370;-67
2023/04/21 00:32:23;;;;;;;;;33.25;22.25;;;;;9.12;57.42;100778.94;5065134;28;45808;-75
2023/04/21 00:34:49;;;;;;;;;29.00;27.00;;;;;9.07;57.56;100783.25;5075216;28;45424;-67
2023/04/21 00:37:15;;;;;;;;;36.00;28.25;;;;;8.98;57.42;100773.56;5075616;27;45485;-67
2023/04/21 00:39:40;;;;;;;;;31.50;26.25;;;;;8.95;57.55;100762.22;5073568;27;47608;-74
2023/04/21 00:42:06;;;;;;;;;25.00;24.25;;;;;8.91;57.65;100753.47;5056741;27;45520;-72
2023/04/21 00:44:31;;;;;;;;;33.25;23.00;;;;;8.99;57.41;100743.09;5058047;27;45372;-66
2023/04/21 00:46:57;;;;;;;;;29.25;26.25;;;;;9.15;57.69;100754.56;5055667;27;45394;-70
2023/04/21 00:49:24;;;;;;;;;38.25;31.25;;;;;9.01;57.97;100752.69;5054635;28;47365;-77
2023/04/21 00:51:51;;;;;;;;;27.75;25.50;;;;;8.85;58.24;100738.63;5066103;27;45534;-75
2023/04/21 00:54:18;;;;;;;;;33.50;24.75;;;;;9.02;58.30;100751.84;5058468;28;45554;-79
2023/04/21 00:56:44;;;;;;;;;24.75;22.50;;;;;9.13;57.28;100752.81;5060463;27;45421;-78
2023/04/21 00:59:10;;;;;;;;;30.75;24.00;;;;;9.25;57.02;100744.16;5064688;27;46603;-71
2023/04/21 01:01:38;;;;;;;;;24.75;20.25;;;;;9.19;56.79;100714.53;5060505;27;45520;-76
2023/04/21 01:04:04;;;;;;;;;20.75;16.25;;;;;9.44;56.73;100745.16;5087947;27;45665;-67
2023/04/21 01:06:31;;;;;;;;;23.75;21.50;;;;;9.42;56.63;100739.09;5057424;27;45448;-68
2023/04/21 01:08:57;;;;;;;;;28.25;22.25;;;;;9.24;56.84;100718.91;5054496;27;46169;-70
2023/04/21 01:11:23;;;;;;;;;27.00;21.75;;;;;9.31;56.80;100728.53;5054270;28;45562;-75
2023/04/21 01:13:54;;;;;;;;;25.75;21.25;;;;;9.24;56.73;100716.31;5056935;27;45507;-66
2023/04/21 01:16:22;;;;;;;;;21.75;18.75;;;;;9.41;57.05;100734.72;5054996;27;45897;-64
2023/04/21 01:18:53;;;;;;;;;28.25;21.75;;;;;9.49;56.61;100732.13;5064310;28;45733;-66
2023/04/21 01:21:20;;;;;;;;;27.00;23.50;;;;;9.51;56.49;100714.72;5058623;27;45594;-66
2023/04/21 01:23:46;;;;;;;;;28.75;25.00;;;;;9.50;56.63;100712.97;5057926;28;45472;-67
2023/04/21 01:26:12;;;;;;;;;25.50;23.00;;;;;9.34;56.98;100709.38;5111277;27;45393;-66
2023/04/21 01:28:37;;;;;;;;;32.00;24.25;;;;;9.30;57.47;100713.75;5077596;27;45708;-68
2023/04/21 01:31:04;;;;;;;;;27.75;24.25;;;;;9.22;57.46;100715.41;5077922;27;45347;-67
2023/04/21 01:33:31;;;;;;;;;32.25;29.50;;;;;9.07;57.79;100697.88;5077827;28;45446;-68
2023/04/21 01:35:57;;;;;;;;;33.75;30.50;;;;;9.18;57.58;100724.09;5093342;27;45768;-70
2023/04/21 01:38:23;;;;;;;;;37.25;32.75;;;;;9.13;57.93;100726.69;5073849;27;45350;-66
2023/04/21 01:40:51;;;;;;;;;31.75;28.75;;;;;8.96;58.33;100725.66;5074168;27;45424;-67
2023/04/21 01:43:19;;;;;;;;;34.00;28.50;;;;;8.97;58.35;100722.19;5074469;27;45460;-71
2023/04/21 01:45:47;;;;;;;;;32.75;28.75;;;;;8.88;58.62;100717.75;5077592;28;45443;-65
2023/04/21 01:48:12;;;;;;;;;33.25;29.75;;;;;8.78;59.02;100696.75;5077204;27;46298;-69
2023/04/21 01:50:38;;;;;;;;;34.00;27.00;;;;;8.69;59.26;100695.84;5073114;28;45705;-66
2023/04/21 01:53:04;;;;;;;;;33.25;31.00;;;;;8.66;59.07;100689.69;5073768;27;45400;-67
2023/04/21 01:55:30;;;;;;;;;28.25;24.50;;;;;8.81;58.53;100695.06;5112363;27;45490;-66
2023/04/21 01:57:58;;;;;;;;;29.50;25.00;;;;;8.89;58.46;100687.28;5079310;27;45958;-67
2023/04/21 02:00:23;;;;;;;;;30.00;25.75;;;;;8.92;58.63;100676.84;5078150;27;45492;-69
2023/04/21 02:02:49;;;;;;;;;25.75;22.25;;;;;9.09;58.01;100687.47;5076587;27;45448;-66
2023/04/21 02:05:15;;;;;;;;;28.25;25.75;;;;;9.17;57.69;100688.38;5078194;27;45509;-68
2023/04/21 02:07:40;;;;;;;;;30.25;27.00;;;;;9.06;58.35;100683.09;5077513;27;45994;-66
2023/04/21 02:10:06;;;;;;;;;28.00;26.25;;;;;9.04;58.31;100697.88;5057974;27;45594;-76
2023/04/21 02:12:32;;;;;;;;;36.00;27.00;;;;;8.91;58.55;100686.44;5093246;27;45467;-67
2023/04/21 02:14:57;;;;;;;;;39.00;29.00;;;;;8.86;58.92;100682.03;5059304;27;45473;-68
2023/04/21 02:17:23;;;;;;;;;40.50;33.75;;;;;9.03;58.50;100690.00;5093099;27;46270;-72
2023/04/21 02:19:48;;;;;;;;;30.75;24.50;;;;;9.00;58.77;100696.09;5056783;27;45370;-67
2023/04/21 02:22:14;;;;;;;;;34.75;26.00;;;;;9.01;58.83;100678.66;5060925;27;45537;-69
2023/04/21 02:24:40;;;;;;;;;33.75;26.75;;;;;8.87;58.75;100675.94;5079684;27;45409;-68
2023/04/21 02:27:05;;;;;;;;;31.00;27.25;;;;;8.80;59.15;100675.00;5077408;27;45519;-66
2023/04/21 02:29:31;;;;;;;;;34.25;29.00;;;;;8.88;59.22;100689.03;5076322;27;45547;-67
2023/04/21 02:31:56;;;;;;;;;33.75;28.50;;;;;8.80;59.36;100685.47;5070270;27;45425;-66
2023/04/21 02:34:22;;;;;;;;;33.00;26.75;;;;;8.82;59.36;100691.56;5083914;27;45432;-72
2023/04/21 02:36:48;;;;;;;;;36.00;28.25;;;;;8.81;59.06;100682.00;5079808;27;45375;-67
2023/04/21 02:39:13;;;;;;;;;28.00;23.75;;;;;8.80;59.32;100687.22;5075711;27;45467;-72
2023/04/21 02:41:39;;;;;;;;;28.25;25.50;;;;;8.80;58.92;100677.63;5077680;27;45393;-65
2023/04/21 02:44:05;;;;;;;;;28.25;26.00;;;;;8.87;58.99;100682.06;5077350;27;45734;-67
2023/04/21 02:46:30;;;;;;;;;32.25;27.50;;;;;8.82;59.00;100665.47;5077828;27;46944;-68
2023/04/21 02:48:56;;;;;;;;;31.25;28.50;;;;;8.75;58.91;100663.66;5078433;27;45259;-74
2023/04/21 02:51:22;;;;;;;;;29.50;25.25;;;;;8.79;59.22;100673.28;5076776;27;45671;-73
2023/04/21 02:53:47;;;;;;;;;32.50;28.00;;;;;8.85;59.29;100667.22;5093160;27;45693;-66
2023/04/21 02:56:13;;;;;;;;;32.25;24.00;;;;;8.84;59.07;100658.53;5068983;28;45572;-73
2023/04/21 02:58:38;;;;;;;;;25.25;23.50;;;;;8.88;59.12;100668.13;5076846;27;45852;-65
2023/04/21 03:01:04;;;;;;;;;31.50;27.25;;;;;8.86;58.75;100664.63;5074526;27;45457;-67
2023/04/21 03:03:31;;;;;;;;;30.75;22.75;;;;;8.89;58.78;100674.22;5066942;28;45292;-70
2023/04/21 03:06:02;;;;;;;;;22.25;21.50;;;;;8.82;59.11;100657.63;5106500;27;47035;-73
2023/04/21 03:08:28;;;;;;;;;23.75;15.75;;;;;8.89;58.97;100646.38;5070755;28;45480;-67
2023/04/21 03:10:54;;;;;;;;;27.75;23.50;;;;;9.00;59.08;100662.13;5076998;27;45457;-75
2023/04/21 03:13:20;;;;;;;;;27.75;24.25;;;;;8.99;58.61;100647.31;5079122;28;45747;-66
2023/04/21 03:15:46;;;;;;;;;29.25;26.25;;;;;8.99;58.78;100647.31;5065658;27;45603;-74
2023/04/21 03:18:12;;;;;;;;;35.75;28.25;;;;;9.08;57.90;100651.72;5079158;28;45294;-75
2023/04/21 03:20:38;;;;;;;;;36.50;28.00;;;;;9.04;58.12;100648.22;5077081;28;45303;-77
2023/04/21 03:23:04;;;;;;;;;30.50;25.50;;;;;8.98;58.32;100639.47;5093466;27;45622;-78
2023/04/21 03:25:33;;;;;;;;;22.50;20.25;;;;;8.96;58.48;100649.91;5077869;28;45640;-69
2023/04/21 03:27:59;;;;;;;;;30.75;25.75;;;;;9.02;58.34;100649.09;5077406;27;45361;-77
2023/04/21 03:30:26;;;;;;;;;37.00;26.75;;;;;8.96;58.10;100635.97;5076575;27;45837;-73
2023/04/21 03:33:05;;;;;;;;;35.25;30.75;;;;;8.96;58.39;100649.03;5062723;27;45180;-72
2023/04/21 03:35:30;;;;;;;;;32.25;28.25;;;;;8.96;58.51;100644.69;5059907;28;45573;-68
2023/04/21 03:37:56;;;;;;;;;33.75;25.50;;;;;8.84;58.98;100634.16;5075623;28;45479;-75
2023/04/21 03:40:22;;;;;;;;;33.25;28.25;;;;;8.85;58.71;100649.84;5079168;28;45337;-68
2023/04/21 03:42:47;;;;;;;;;27.25;25.25;;;;;8.80;58.94;100632.38;5076580;27;45483;-66
2023/04/21 03:45:13;;;;;;;;;32.75;28.75;;;;;8.87;58.73;100636.78;5074464;28;46056;-67
2023/04/21 03:47:38;;;;;;;;;36.75;32.25;;;;;8.88;58.72;100631.56;5076267;27;45427;-75
2023/04/21 03:50:05;;;;;;;;;39.25;32.00;;;;;8.98;58.53;100632.50;5075584;28;45414;-65
2023/04/21 03:52:31;;;;;;;;;31.50;24.75;;;;;9.09;58.35;100635.19;5074609;27;45528;-66
2023/04/21 03:54:56;;;;;;;;;34.50;27.25;;;;;9.01;58.59;100626.44;5075900;28;45310;-74
2023/04/21 03:57:22;;;;;;;;;32.75;28.50;;;;;9.08;58.58;100633.44;5076312;28;45457;-76
2023/04/21 03:59:47;;;;;;;;;41.50;31.25;;;;;8.97;58.36;100616.81;5076281;28;46120;-73
2023/04/21 04:02:13;;;;;;;;;32.50;27.25;;;;;9.04;58.62;100636.88;5070074;27;45332;-78
2023/04/21 04:04:38;;;;;;;;;32.25;27.25;;;;;8.83;58.88;100627.19;5068069;27;46352;-70
2023/04/21 04:07:06;;;;;;;;;32.75;27.75;;;;;8.74;59.05;100606.22;5055436;28;45398;-73
2023/04/21 04:09:32;;;;;;;;;35.75;29.50;;;;;8.81;59.32;100632.38;5055334;27;45430;-67
2023/04/21 04:11:57;;;;;;;;;37.00;34.00;;;;;8.78;59.65;100613.19;5056062;27;45401;-67
2023/04/21 04:14:22;;;;;;;;;31.25;30.00;;;;;8.68;60.01;100601.81;5059545;28;46136;-72
2023/04/21 04:16:48;;;;;;;;;30.50;25.50;;;;;8.81;59.52;100603.66;5059405;27;45336;-70
2023/04/21 04:19:14;;;;;;;;;34.25;24.75;;;;;8.98;59.56;100616.81;5057144;27;45355;-72
2023/04/21 04:21:40;;;;;;;;;34.25;30.50;;;;;9.02;59.32;100617.75;5088420;27;45456;-70
2023/04/21 04:24:07;;;;;;;;;33.75;28.50;;;;;9.03;59.33;100615.13;5058647;28;45538;-73
2023/04/21 04:26:37;;;;;;;;;38.75;29.75;;;;;9.07;59.64;100622.13;5056237;27;45488;-69
2023/04/21 04:29:04;;;;;;;;;38.25;27.75;;;;;9.00;59.53;100622.94;5056743;27;45568;-73
2023/04/21 04:31:31;;;;;;;;;27.50;24.75;;;;;9.05;59.38;100620.38;5090073;27;45357;-70
2023/04/21 04:33:56;;;;;;;;;28.50;23.75;;;;;9.12;59.13;100620.41;5081559;27;47675;-72
2023/04/21 04:36:23;;;;;;;;;26.75;24.00;;;;;9.11;59.14;100602.09;5061649;27;45375;-76
2023/04/21 04:38:51;;;;;;;;;31.25;23.75;;;;;9.32;58.91;100617.91;5064677;27;45526;-68
2023/04/21 04:41:18;;;;;;;;;33.50;27.75;;;;;9.25;58.59;100591.72;5062636;27;45503;-72
2023/04/21 04:43:43;;;;;;;;;32.00;28.75;;;;;9.42;59.21;100620.56;5060947;28;46708;-68
2023/04/21 04:46:11;;;;;;;;;33.75;31.25;;;;;9.32;59.17;100617.91;5057777;27;45455;-69
2023/04/21 04:48:37;;;;;;;;;42.75;33.50;;;;;9.30;59.02;100619.66;5057285;27;45561;-76
2023/04/21 04:51:03;;;;;;;;;33.25;29.00;;;;;9.18;59.81;100622.16;5074379;28;45510;-69
2023/04/21 04:53:29;;;;;;;;;40.50;33.75;;;;;9.13;60.07;100614.34;5093471;27;46711;-68
2023/04/21 04:55:56;;;;;;;;;40.25;31.00;;;;;9.01;59.82;100608.13;5058619;27;45465;-75
2023/04/21 04:58:22;;;;;;;;;37.25;31.00;;;;;8.98;60.21;100616.81;5059559;27;45519;-75
2023/04/21 05:00:47;;;;;;;;;37.00;30.50;;;;;8.88;60.83;100613.28;5058155;27;45502;-70
2023/04/21 05:03:13;;;;;;;;;29.25;23.75;;;;;9.02;60.41;100607.28;5065194;28;45444;-70
2023/04/21 05:05:38;;;;;;;;;25.00;23.00;;;;;9.09;60.29;100607.34;5064637;27;45281;-71
2023/04/21 05:08:04;;;;;;;;;30.00;26.50;;;;;9.17;60.21;100607.38;5062951;28;45496;-67
2023/04/21 05:10:29;;;;;;;;;39.00;35.00;;;;;9.19;60.53;100604.78;5057488;28;45770;-68
2023/04/21 05:12:55;;;;;;;;;36.50;32.75;;;;;9.00;60.20;100588.13;5070330;27;45858;-68
2023/04/21 05:15:21;;;;;;;;;32.00;31.25;;;;;9.13;60.18;100608.22;5054910;28;45445;-66
2023/04/21 05:17:47;;;;;;;;;34.25;31.50;;;;;9.13;60.74;100623.88;5053794;28;45793;-66
2023/04/21 05:20:13;;;;;;;;;43.75;36.00;;;;;9.01;60.48;100608.13;5054202;27;45461;-69
2023/04/21 05:22:39;;;;;;;;;38.25;32.50;;;;;8.95;61.02;100601.16;5065209;27;46292;-67
2023/04/21 05:25:05;;;;;;;;;35.75;31.50;;;;;8.93;60.96;100610.72;5063201;28;45541;-72
2023/04/21 05:27:32;;;;;;;;;38.25;34.00;;;;;8.97;61.04;100619.41;5076823;27;45683;-67
2023/04/21 05:29:58;;;;;;;;;39.50;34.50;;;;;8.89;60.40;100598.47;5063680;27;45691;-68
2023/04/21 05:32:24;;;;;;;;;40.25;31.25;;;;;8.87;60.70;100611.56;5062147;27;45511;-75
2023/04/21 05:34:50;;;;;;;;;40.25;33.00;;;;;8.84;61.04;100603.66;5057652;27;45432;-66
2023/04/21 05:37:15;;;;;;;;;53.25;37.50;;;;;8.88;61.29;100615.91;5089408;27;46311;-70
2023/04/21 05:39:41;;;;;;;;;48.00;33.25;;;;;8.85;61.54;100613.28;5065824;27;45509;-76
2023/04/21 05:42:10;;;;;;;;;42.50;32.75;;;;;8.81;61.96;100606.28;5060547;27;46051;-69
2023/04/21 05:44:37;;;;;;;;;46.75;35.75;;;;;8.77;61.97;100596.66;5062153;27;45458;-74
2023/04/21 05:47:06;;;;;;;;;33.25;28.25;;;;;8.97;61.72;100619.41;5066241;27;45428;-67
2023/04/21 05:49:32;;;;;;;;;33.00;31.25;;;;;9.03;61.60;100617.72;5057365;27;45485;-67
2023/04/21 05:51:57;;;;;;;;;50.25;36.00;;;;;9.00;61.67;100616.84;5057964;27;46137;-69
2023/04/21 05:54:23;;;;;;;;;34.75;28.50;;;;;9.12;61.28;100620.41;5056692;27;45805;-67
2023/04/21 05:56:48;;;;;;;;;44.75;34.50;;;;;9.23;61.21;100622.19;5064870;27;45650;-69
2023/04/21 05:59:14;;;;;;;;;36.25;30.50;;;;;9.18;60.58;100606.50;5085397;27;45464;-67
2023/04/21 06:01:41;;;;;;;;;44.50;34.00;;;;;9.13;61.26;100598.66;5059287;27;45429;-73
2023/04/21 06:04:07;;;;;;;;;49.75;38.25;;;;;9.35;61.08;100619.69;5067527;27;45472;-67
2023/04/21 06:06:33;;;;;;;;;51.25;38.75;;;;;9.34;60.43;100600.47;5070132;27;45373;-67
2023/04/21 06:08:58;;;;;;;;;45.50;34.50;;;;;9.31;60.76;100602.22;5070623;27;45674;-66
2023/04/21 06:11:24;;;;;;;;;39.25;32.25;;;;;9.31;60.40;100604.84;5056042;27;46306;-70
2023/04/21 06:13:52;;;;;;;;;31.00;25.00;;;;;9.44;60.01;100597.91;5056206;27;45631;-74
2023/04/21 06:16:22;;;;;;;;;40.25;30.75;;;;;9.47;60.17;100605.78;5059494;27;45448;-67
2023/04/21 06:18:47;;;;;;;;;43.00;36.00;;;;;9.44;60.61;100592.69;5063203;27;45520;-68
2023/04/21 06:21:14;;;;;;;;;41.25;32.75;;;;;9.49;59.67;100588.34;5063141;27;45666;-71
2023/04/21 06:23:41;;;;;;;;;31.50;29.25;;;;;9.67;59.54;100611.09;5057426;28;45726;-72
2023/04/21 06:26:08;;;;;;;;;47.00;32.75;;;;;9.62;59.65;100607.59;5069225;27;46249;-72
2023/04/21 06:28:35;;;;;;;;;35.75;29.50;;;;;9.69;59.97;100599.75;5072676;27;46674;-72
2023/04/21 06:31:01;;;;;;;;;37.25;34.50;;;;;9.81;59.05;100616.38;5079924;27;45900;-67
2023/04/21 06:33:28;;;;;;;;;31.25;28.50;;;;;9.89;58.68;100610.28;5059362;27;46201;-69
2023/04/21 06:35:54;;;;;;;;;39.50;29.50;;;;;9.94;58.55;100599.81;5059186;27;45430;-73
2023/04/21 06:38:20;;;;;;;;;26.25;22.50;;;;;10.21;58.06;100609.50;5062877;27;45597;-69
2023/04/21 06:40:46;;;;;;;;;29.25;24.25;;;;;10.08;57.75;100569.31;5061535;27;47609;-70
2023/04/21 06:43:11;;;;;;;;;32.25;30.25;;;;;10.39;57.24;100588.59;5057105;27;45521;-72
2023/04/21 06:45:37;;;;;;;;;38.50;31.25;;;;;10.67;56.95;100606.91;5068688;27;45279;-66
2023/04/21 06:48:02;;;;;;;;;32.50;30.50;;;;;10.89;56.11;100599.94;5075456;27;45367;-68
2023/04/21 06:50:28;;;;;;;;;34.75;28.50;;;;;11.13;56.03;100601.63;5075250;28;47011;-70
2023/04/21 06:52:53;;;;;;;;;34.75;30.00;;;;;11.17;55.21;100578.88;5073897;27;45519;-67
2023/04/21 06:55:19;;;;;;;;;41.00;34.00;;;;;11.29;55.48;100601.56;5072876;27;45524;-67
2023/04/21 06:57:45;;;;;;;;;48.50;38.25;;;;;11.08;55.19;100595.53;5064563;27;46596;-68
2023/04/21 07:00:11;;;;;;;;;49.00;36.25;;;;;10.88;55.51;100606.03;5088372;27;46588;-69
2023/04/21 07:02:36;;;;;;;;;48.25;34.75;;;;;10.68;55.68;100603.44;5067819;27;45619;-67
2023/04/21 07:05:02;;;;;;;;;48.75;37.75;;;;;10.61;55.77;100609.56;5057607;27;45476;-68
2023/04/21 07:07:28;;;;;;;;;47.75;36.50;;;;;10.43;55.69;100602.56;5059089;27;45414;-73
2023/04/21 07:09:54;;;;;;;;;51.75;38.25;;;;;10.37;56.93;100605.19;5063309;27;47881;-71
2023/04/21 07:12:23;;;;;;;;;41.25;35.25;;;;;10.26;56.58;100592.03;5074084;27;45653;-71
2023/04/21 07:14:49;;;;;;;;;38.50;30.25;;;;;10.27;56.73;100600.75;5055401;27;45271;-70
2023/04/21 07:17:15;;;;;;;;;40.00;34.00;;;;;10.48;56.39;100597.31;5055082;27;46658;-69
2023/04/21 07:19:41;;;;;;;;;44.50;33.25;;;;;10.47;55.98;100580.75;5055374;27;46444;-72
2023/04/21 07:22:07;;;;;;;;;36.50;32.25;;;;;10.45;56.28;100598.19;5060594;27;45563;-73
2023/04/21 07:24:34;;;;;;;;;38.75;31.00;;;;;10.46;56.15;100584.22;5064315;27;45523;-67
2023/04/21 07:27:01;;;;;;;;;46.50;34.75;;;;;10.53;55.37;100585.97;5062624;27;45761;-65
2023/04/21 07:29:28;;;;;;;;;39.25;32.25;;;;;10.50;55.53;100572.00;5054606;27;45487;-68
2023/04/21 07:31:55;;;;;;;;;38.75;34.50;;;;;10.72;55.52;100565.00;5053693;27;45431;-74
2023/04/21 07:34:20;;;;;;;;;31.25;27.50;;;;;11.03;54.80;100561.47;5058617;27;45366;-68
2023/04/21 07:36:46;;;;;;;;;31.75;24.75;;;;;11.54;53.96;100574.38;5057449;27;45337;-68
2023/04/21 07:39:11;;;;;;;;;37.00;27.75;;;;;11.91;53.06;100582.06;5057344;27;46172;-72
2023/04/21 07:41:40;;;;;;;;;32.25;27.25;;;;;12.07;52.05;100583.72;5053674;27;45442;-68
2023/04/21 07:44:06;;;;;;;;;33.00;28.25;;;;;12.19;51.29;100577.50;5053328;27;45468;-69
2023/04/21 07:46:34;;;;;;;;;33.50;27.25;;;;;12.24;51.12;100570.50;5055096;27;45394;-72
2023/04/21 07:49:00;;;;;;;;;28.75;26.25;;;;;12.26;50.16;100576.59;5057549;27;45927;-72
2023/04/21 07:51:29;;;;;;;;;26.25;22.00;;;;;12.02;49.69;100572.38;5057254;28;45470;-73
2023/04/21 07:53:54;;;;;;;;;25.00;20.50;;;;;11.93;49.57;100569.81;5055237;28;45930;-73
2023/04/21 07:56:20;;;;;;;;;20.25;18.25;;;;;11.90;49.82;100574.22;5057035;27;45614;-67
2023/04/21 07:58:46;;;;;;;;;22.75;19.75;;;;;11.66;50.29;100562.94;5054962;27;46615;-69
2023/04/21 08:01:11;;;;;;;;;21.50;18.25;;;;;11.69;51.38;100573.41;5053712;27;45520;-71
2023/04/21 08:03:37;;;;;;;;;27.25;23.25;;;;;11.75;50.36;100569.91;5054144;27;45488;-69
2023/04/21 08:06:03;;;;;;;;;23.50;20.75;;;;;11.71;49.95;100568.19;5067810;28;45536;-66
2023/04/21 08:08:29;;;;;;;;;24.75;21.00;;;;;11.91;50.12;100570.72;5063976;27;45539;-68
2023/04/21 08:10:55;;;;;;;;;22.75;17.00;;;;;11.96;49.53;100561.94;5071897;27;45434;-67
2023/04/21 08:13:24;;;;;;;;;24.50;23.75;;;;;12.07;49.27;100556.59;5073980;28;45562;-68
2023/04/21 08:15:50;;;;;;;;;25.50;21.75;;;;;12.32;48.91;100566.94;5074159;27;45768;-69
2023/04/21 08:18:17;;;;;;;;;25.00;20.00;;;;;12.38;49.11;100566.88;5059153;27;46415;-67
2023/04/21 08:20:46;;;;;;;;;25.75;21.25;;;;;12.67;48.20;100558.72;5073717;27;45478;-71
2023/04/21 08:23:15;;;;;;;;;28.00;24.25;;;;;12.97;47.74;100556.69;5074067;27;45512;-71
2023/04/21 08:25:40;;;;;;;;;24.75;20.50;;;;;12.88;46.90;100552.41;5076884;27;45517;-70
2023/04/21 08:28:06;;;;;;;;;29.00;25.25;;;;;12.71;46.97;100558.69;5074133;27;45702;-69
2023/04/21 08:30:32;;;;;;;;;24.25;21.25;;;;;12.58;47.67;100549.19;5072305;27;45542;-71
2023/04/21 08:32:57;;;;;;;;;22.75;22.75;;;;;12.79;47.72;100556.00;5076751;28;45311;-72
2023/04/21 08:35:23;;;;;;;;;25.75;19.75;;;;;12.68;46.65;100519.31;5068019;28;45829;-75
2023/04/21 08:37:49;;;;;;;;;29.50;26.25;;;;;13.03;46.08;100557.50;5063346;27;46344;-74
2023/04/21 08:40:15;;;;;;;;;21.00;21.00;;;;;12.97;46.33;100562.81;5057821;27;45414;-67
2023/04/21 08:42:41;;;;;;;;;33.75;25.75;;;;;12.89;46.33;100576.06;5063547;27;45583;-69
2023/04/21 08:45:07;;;;;;;;;35.75;27.25;;;;;12.68;47.35;100566.63;5059559;27;45731;-74
2023/04/21 08:47:33;;;;;;;;;24.50;24.25;;;;;12.64;47.51;100570.16;5066242;28;45846;-67
2023/04/21 08:49:59;;;;;;;;;20.25;17.75;;;;;12.90;47.33;100561.13;5065648;27;46288;-71
2023/04/21 08:52:24;;;;;;;;;26.75;26.50;;;;;13.15;46.81;100556.50;5062685;27;45864;-70
2023/04/21 08:54:51;;;;;;;;;28.75;25.25;;;;;12.92;46.61;100562.88;5053854;27;45618;-70
2023/04/21 08:57:18;;;;;;;;;26.25;24.25;;;;;12.61;47.64;100557.03;5085381;27;47855;-71
2023/04/21 08:59:44;;;;;;;;;23.75;21.00;;;;;12.55;47.67;100553.59;5085713;27;45511;-71
2023/04/21 09:02:15;;;;;;;;;31.00;26.75;;;;;12.26;48.30;100559.97;5072102;27;45504;-71
2023/04/21 09:04:45;;;;;;;;;31.75;26.00;;;;;12.28;48.38;100564.31;5085442;27;45827;-71
2023/04/21 09:07:11;;;;;;;;;31.75;26.25;;;;;12.36;47.82;100563.38;5073994;28;45530;-71
2023/04/21 09:09:56;;;;;;;;;27.50;26.00;;;;;12.21;47.02;100570.50;5077917;28;45358;-70
2023/04/21 09:12:22;;;;;;;;;31.75;24.00;;;;;11.99;47.21;100564.53;5073830;28;45672;-68
2023/04/21 09:14:49;;;;;;;;;27.75;27.00;;;;;11.77;47.51;100552.38;5089907;27;45478;-69
2023/04/21 09:17:16;;;;;;;;;34.50;30.25;;;;;11.72;48.36;100551.53;5077134;27;46177;-74
2023/04/21 09:19:42;;;;;;;;;32.00;27.50;;;;;11.86;49.10;100563.72;5090749;27;45437;-71
2023/04/21 09:22:08;;;;;;;;;30.75;26.25;;;;;11.97;49.06;100550.56;5074491;28;45471;-68
2023/04/21 09:24:34;;;;;;;;;34.75;28.75;;;;;12.31;48.56;100560.78;5074977;28;45499;-69
2023/04/21 09:27:03;;;;;;;;;27.75;23.75;;;;;12.38;46.25;100544.09;5091667;27;45350;-71
2023/04/21 09:29:29;;;;;;;;;30.25;28.50;;;;;12.42;46.25;100552.84;5078330;28;45569;-72
2023/04/21 09:31:55;;;;;;;;;24.00;20.75;;;;;12.39;45.49;100576.53;5110933;27;45595;-73
2023/04/21 09:34:23;;;;;;;;;31.25;26.00;;;;;12.36;46.29;100569.50;5075465;28;45322;-71
2023/04/21 09:37:00;;;;;;;;;33.25;26.25;;;;;12.25;46.97;100560.88;5075894;28;45513;-69
2023/04/21 09:39:26;;;;;;;;;35.50;28.75;;;;;12.17;48.04;100552.16;5091333;27;45363;-67
2023/04/21 09:41:51;;;;;;;;;29.75;25.75;;;;;12.19;47.61;100561.75;5074530;28;45833;-71
2023/04/21 09:44:17;;;;;;;;;35.00;26.25;;;;;12.14;47.80;100554.81;5077196;27;45590;-72
2023/04/21 09:46:46;;;;;;;;;27.75;21.00;;;;;12.24;48.74;100552.13;5078191;28;47824;-68
2023/04/21 09:49:15;;;;;;;;;24.25;22.25;;;;;12.35;48.61;100559.03;5075184;28;45442;-68
2023/04/21 09:51:42;;;;;;;;;23.50;20.00;;;;;12.47;48.56;100546.66;5072899;28;45327;-73
2023/04/21 09:54:19;;;;;;;;;21.25;18.00;;;;;12.65;47.98;100553.50;5074857;28;45619;-65
2023/04/21 09:56:49;;;;;;;;;23.75;19.00;;;;;12.64;47.94;100532.50;5073962;28;45848;-71
2023/04/21 09:59:19;;;;;;;;;27.75;22.75;;;;;12.69;46.63;100542.09;5055675;27;45347;-70
2023/04/21 10:01:49;;;;;;;;;21.75;17.50;;;;;12.69;47.32;100542.09;5053663;27;45543;-68
2023/04/21 10:04:15;;;;;;;;;18.50;16.25;;;;;12.84;47.37;100550.72;5052724;28;45378;-68
2023/04/21 10:06:41;;;;;;;;;18.25;17.75;;;;;12.92;47.73;100540.97;5071109;28;46472;-67
2023/04/21 10:09:08;;;;;;;;;21.50;16.75;;;;;13.05;46.89;100531.19;5071939;28;45457;-70
2023/04/21 10:11:35;;;;;;;;;17.75;13.50;;;;;13.20;46.39;100524.91;5074847;28;45485;-67
2023/04/21 10:14:02;;;;;;;;;18.00;14.50;;;;;13.46;46.48;100532.50;5062989;27;45441;-70
2023/04/21 10:16:28;;;;;;;;;22.25;17.00;;;;;13.66;45.53;100519.91;5055697;28;46152;-67
2023/04/21 10:18:53;;;;;;;;;24.00;22.25;;;;;13.96;44.55;100544.06;5055631;27;45500;-71
2023/04/21 10:21:20;;;;;;;;;28.50;22.75;;;;;14.05;44.47;100535.13;5056140;28;45467;-69
2023/04/21 10:23:52;;;;;;;;;29.50;22.00;;;;;14.13;44.14;100535.91;5058020;27;45397;-70
2023/04/21 10:26:24;;;;;;;;;26.75;23.00;;;;;14.14;44.36;100530.63;5058557;27;46298;-67
2023/04/21 10:29:05;;;;;;;;;30.25;25.25;;;;;14.13;43.54;100523.59;5091215;27;45786;-67
2023/04/21 10:31:52;;;;;;;;;33.00;27.25;;;;;13.84;43.53;100526.69;5058652;27;45382;-70
2023/04/21 10:34:28;;;;;;;;;23.75;21.25;;;;;13.55;44.83;100522.72;5070911;27;45499;-68
2023/04/21 10:36:54;;;;;;;;;43.75;35.75;;;;;13.70;45.90;100533.91;5061813;27;45528;-69
2023/04/21 10:39:54;;;;;;;;;25.25;22.00;;;;;13.71;44.44;100520.72;5061778;27;45381;-67
2023/04/21 10:42:23;;;;;;;;;19.00;16.50;;;;;13.89;45.37;100527.47;5061497;27;45299;-68
2023/04/21 10:45:01;;;;;;;;;24.25;20.00;;;;;14.00;43.58;100509.75;5061473;27;45548;-67
2023/04/21 10:47:37;;;;;;;;;32.50;26.50;;;;;13.95;43.08;100501.06;5056126;27;45760;-69
2023/04/21 10:50:20;;;;;;;;;22.75;20.75;;;;;13.82;43.40;100496.00;5059680;28;45503;-68
2023/04/21 10:52:54;;;;;;;;;22.50;15.25;;;;;14.05;43.60;100522.88;5060382;27;45485;-68
2023/04/21 10:55:21;;;;;;;;;17.50;13.25;;;;;14.47;43.28;100504.56;5059704;27;45524;-69
2023/04/21 10:57:47;;;;;;;;;18.50;13.75;;;;;14.73;43.14;100488.31;5059253;27;45458;-68
2023/04/21 11:00:19;;;;;;;;;19.00;17.75;;;;;15.32;42.64;100510.91;5054192;27;45369;-67
2023/04/21 11:03:02;;;;;;;;;25.50;18.75;;;;;15.76;41.53;100506.47;5055333;28;45351;-69
2023/04/21 11:05:28;;;;;;;;;25.50;17.00;;;;;16.04;40.15;100493.44;5074415;28;45493;-69
2023/04/21 11:08:02;;;;;;;;;22.25;17.75;;;;;16.35;39.69;100484.75;5077678;28;46548;-68
2023/04/21 11:10:27;;;;;;;;;20.00;15.50;;;;;16.71;39.77;100473.22;5078437;27;45573;-69
2023/04/21 11:12:56;;;;;;;;;18.25;15.75;;;;;16.98;38.95;100470.72;5079208;28;45699;-68